sensor_id;sensor_type;location;lat;lon;timestamp;pressure;altitude;pressure_sealevel;temperature;humidity
74594;BME280;63097;51.872;4.460;2023-06-26T00:01:15;101387.56;;;21.72;70.34
74594;BME280;63097;51.872;4.460;2023-06-26T00:03:40;101354.63;;;21.49;70.57
74594;BME280;63097;51.872;4.460;2023-06-26T00:06:05;101392.50;;;21.67;70.93
74594;BME280;63097;51.872;4.460;2023-06-26T00:08:31;101383.25;;;21.61;70.30
74594;BME280;63097;51.872;4.460;2023-06-26T00:10:57;101402.00;;;21.57;70.76
74594;BME280;63097;51.872;4.460;2023-06-26T00:13:23;101405.69;;;21.44;71.37
74594;BME280;63097;51.872;4.460;2023-06-26T00:15:48;101404.00;;;21.43;72.10
74594;BME280;63097;51.872;4.460;2023-06-26T00:18:14;101405.97;;;21.29;72.47
74594;BME280;63097;51.872;4.460;2023-06-26T00:20:39;101405.91;;;21.16;72.77
74594;BME280;63097;51.872;4.460;2023-06-26T00:23:05;101417.88;;;21.13;73.11
74594;BME280;63097;51.872;4.460;2023-06-26T00:25:30;101403.94;;;20.97;73.45
74594;BME280;63097;51.872;4.460;2023-06-26T00:27:55;101413.66;;;20.91;74.55
74594;BME280;63097;51.872;4.460;2023-06-26T00:30:20;101419.94;;;20.88;73.81
74594;BME280;63097;51.872;4.460;2023-06-26T00:32:46;101414.38;;;20.83;74.30
74594;BME280;63097;51.872;4.460;2023-06-26T00:35:11;101397.00;;;20.71;75.06
74594;BME280;63097;51.872;4.460;2023-06-26T00:37:36;101404.81;;;20.79;75.27
74594;BME280;63097;51.872;4.460;2023-06-26T00:40:02;101394.34;;;20.61;76.07
74594;BME280;63097;51.872;4.460;2023-06-26T00:42:27;101410.31;;;20.71;75.44
74594;BME280;63097;51.872;4.460;2023-06-26T00:44:53;101400.91;;;20.57;76.42
74594;BME280;63097;51.872;4.460;2023-06-26T00:47:18;101396.34;;;20.61;76.63
74594;BME280;63097;51.872;4.460;2023-06-26T00:49:44;101405.22;;;20.54;77.35
74594;BME280;63097;51.872;4.460;2023-06-26T00:52:09;101409.34;;;20.43;77.79
74594;BME280;63097;51.872;4.460;2023-06-26T00:54:34;101406.72;;;20.28;78.41
74594;BME280;63097;51.872;4.460;2023-06-26T00:57:00;101430.41;;;20.32;78.41
74594;BME280;63097;51.872;4.460;2023-06-26T00:59:25;101429.69;;;20.40;77.87
74594;BME280;63097;51.872;4.460;2023-06-26T01:01:50;101431.06;;;20.24;78.91
74594;BME280;63097;51.872;4.460;2023-06-26T01:04:16;101426.81;;;20.27;79.29
74594;BME280;63097;51.872;4.460;2023-06-26T01:06:41;101431.38;;;20.23;79.41
74594;BME280;63097;51.872;4.460;2023-06-26T01:09:07;101431.13;;;20.19;79.81
74594;BME280;63097;51.872;4.460;2023-06-26T01:11:33;101428.31;;;20.19;79.85
74594;BME280;63097;51.872;4.460;2023-06-26T01:13:59;101431.59;;;20.26;79.97
74594;BME280;63097;51.872;4.460;2023-06-26T01:16:27;101422.50;;;20.29;79.63
74594;BME280;63097;51.872;4.460;2023-06-26T01:18:55;101394.66;;;20.23;79.92
74594;BME280;63097;51.872;4.460;2023-06-26T01:21:20;101411.09;;;20.39;79.64
74594;BME280;63097;51.872;4.460;2023-06-26T01:23:57;101422.47;;;20.34;80.13
74594;BME280;63097;51.872;4.460;2023-06-26T01:26:26;101397.16;;;20.24;79.65
74594;BME280;63097;51.872;4.460;2023-06-26T01:28:53;101418.72;;;20.39;80.04
74594;BME280;63097;51.872;4.460;2023-06-26T01:31:19;101412.75;;;20.40;79.19
74594;BME280;63097;51.872;4.460;2023-06-26T01:33:45;101412.69;;;20.27;80.63
74594;BME280;63097;51.872;4.460;2023-06-26T01:36:11;101419.44;;;20.26;80.18
74594;BME280;63097;51.872;4.460;2023-06-26T01:38:37;101422.00;;;20.27;79.83
74594;BME280;63097;51.872;4.460;2023-06-26T01:41:03;101400.38;;;20.13;79.76
74594;BME280;63097;51.872;4.460;2023-06-26T01:44:01;101428.78;;;20.26;79.88
74594;BME280;63097;51.872;4.460;2023-06-26T01:47:01;101418.56;;;20.30;79.75
74594;BME280;63097;51.872;4.460;2023-06-26T01:52:31;101432.91;;;20.34;79.22
74594;BME280;63097;51.872;4.460;2023-06-26T01:55:21;101439.41;;;20.34;78.96
74594;BME280;63097;51.872;4.460;2023-06-26T01:57:50;101440.84;;;20.32;78.83
74594;BME280;63097;51.872;4.460;2023-06-26T02:00:17;101425.28;;;20.34;79.06
74594;BME280;63097;51.872;4.460;2023-06-26T02:02:44;101426.34;;;20.38;78.92
74594;BME280;63097;51.872;4.460;2023-06-26T02:05:11;101434.31;;;20.36;78.67
74594;BME280;63097;51.872;4.460;2023-06-26T02:07:37;101401.00;;;20.10;78.36
74594;BME280;63097;51.872;4.460;2023-06-26T02:10:02;101450.75;;;20.29;77.90
74594;BME280;63097;51.872;4.460;2023-06-26T02:12:28;101444.59;;;20.27;78.13
74594;BME280;63097;51.872;4.460;2023-06-26T02:14:53;101425.41;;;20.24;77.60
74594;BME280;63097;51.872;4.460;2023-06-26T02:17:20;101427.66;;;20.27;77.47
74594;BME280;63097;51.872;4.460;2023-06-26T02:19:45;101416.34;;;20.27;77.04
74594;BME280;63097;51.872;4.460;2023-06-26T02:22:11;101448.13;;;20.38;77.56
74594;BME280;63097;51.872;4.460;2023-06-26T02:24:36;101420.53;;;20.30;76.32
74594;BME280;63097;51.872;4.460;2023-06-26T02:27:01;101433.38;;;20.41;76.35
74594;BME280;63097;51.872;4.460;2023-06-26T02:29:26;101445.53;;;20.41;76.17
74594;BME280;63097;51.872;4.460;2023-06-26T02:31:52;101429.47;;;20.37;75.68
74594;BME280;63097;51.872;4.460;2023-06-26T02:34:17;101453.41;;;20.44;75.02
74594;BME280;63097;51.872;4.460;2023-06-26T02:36:42;101441.09;;;20.54;73.96
74594;BME280;63097;51.872;4.460;2023-06-26T02:39:08;101451.19;;;20.41;74.87
74594;BME280;63097;51.872;4.460;2023-06-26T02:41:33;101456.97;;;20.31;75.34
74594;BME280;63097;51.872;4.460;2023-06-26T02:43:58;101434.50;;;20.21;74.71
74594;BME280;63097;51.872;4.460;2023-06-26T02:46:24;101445.84;;;20.16;75.07
74594;BME280;63097;51.872;4.460;2023-06-26T02:48:50;101448.53;;;20.02;76.21
74594;BME280;63097;51.872;4.460;2023-06-26T02:51:15;101469.22;;;19.98;75.82
74594;BME280;63097;51.872;4.460;2023-06-26T02:53:41;101454.50;;;20.01;75.55
74594;BME280;63097;51.872;4.460;2023-06-26T02:56:06;101449.75;;;19.96;75.97
74594;BME280;63097;51.872;4.460;2023-06-26T02:58:31;101452.41;;;19.88;76.03
74594;BME280;63097;51.872;4.460;2023-06-26T03:00:57;101462.72;;;19.74;76.86
74594;BME280;63097;51.872;4.460;2023-06-26T03:03:22;101481.69;;;19.68;77.67
74594;BME280;63097;51.872;4.460;2023-06-26T03:05:47;101463.13;;;19.62;77.21
74594;BME280;63097;51.872;4.460;2023-06-26T03:08:12;101468.59;;;19.54;77.81
74594;BME280;63097;51.872;4.460;2023-06-26T03:10:38;101480.13;;;19.57;77.54
74594;BME280;63097;51.872;4.460;2023-06-26T03:13:03;101460.50;;;19.42;78.16
74594;BME280;63097;51.872;4.460;2023-06-26T03:15:28;101481.59;;;19.50;78.24
74594;BME280;63097;51.872;4.460;2023-06-26T03:17:54;101482.16;;;19.47;78.05
74594;BME280;63097;51.872;4.460;2023-06-26T03:20:19;101496.25;;;19.52;77.54
74594;BME280;63097;51.872;4.460;2023-06-26T03:22:44;101501.34;;;19.50;76.61
74594;BME280;63097;51.872;4.460;2023-06-26T03:25:12;101494.91;;;19.44;76.69
74594;BME280;63097;51.872;4.460;2023-06-26T03:27:38;101489.91;;;19.36;76.88
74594;BME280;63097;51.872;4.460;2023-06-26T03:30:03;101494.47;;;19.27;77.21
74594;BME280;63097;51.872;4.460;2023-06-26T03:32:28;101494.16;;;19.34;76.40
74594;BME280;63097;51.872;4.460;2023-06-26T03:34:54;101479.56;;;19.22;77.07
74594;BME280;63097;51.872;4.460;2023-06-26T03:37:19;101489.66;;;19.28;76.73
74594;BME280;63097;51.872;4.460;2023-06-26T03:39:44;101491.38;;;19.24;77.24
74594;BME280;63097;51.872;4.460;2023-06-26T03:42:10;101500.16;;;19.22;77.61
74594;BME280;63097;51.872;4.460;2023-06-26T03:44:35;101488.97;;;19.07;78.46
74594;BME280;63097;51.872;4.460;2023-06-26T03:47:00;101506.03;;;19.26;78.53
74594;BME280;63097;51.872;4.460;2023-06-26T03:49:26;101506.63;;;19.23;78.47
74594;BME280;63097;51.872;4.460;2023-06-26T03:51:51;101506.41;;;19.14;78.63
74594;BME280;63097;51.872;4.460;2023-06-26T03:54:16;101509.88;;;19.06;78.53
74594;BME280;63097;51.872;4.460;2023-06-26T03:56:42;101514.88;;;19.14;78.58
74594;BME280;63097;51.872;4.460;2023-06-26T03:59:07;101509.53;;;19.13;78.76
74594;BME280;63097;51.872;4.460;2023-06-26T04:01:32;101504.28;;;18.96;78.91
74594;BME280;63097;51.872;4.460;2023-06-26T04:03:58;101516.59;;;19.10;78.30
74594;BME280;63097;51.872;4.460;2023-06-26T04:06:23;101520.22;;;19.16;77.95
74594;BME280;63097;51.872;4.460;2023-06-26T04:08:48;101524.78;;;19.12;78.12
74594;BME280;63097;51.872;4.460;2023-06-26T04:11:15;101538.03;;;19.11;78.16
74594;BME280;63097;51.872;4.460;2023-06-26T04:13:40;101531.31;;;19.02;77.89
74594;BME280;63097;51.872;4.460;2023-06-26T04:16:06;101535.50;;;19.04;78.95
74594;BME280;63097;51.872;4.460;2023-06-26T04:18:31;101541.88;;;19.25;77.56
74594;BME280;63097;51.872;4.460;2023-06-26T04:21:09;101549.47;;;19.30;77.46
74594;BME280;63097;51.872;4.460;2023-06-26T04:23:35;101555.63;;;19.37;76.00
74594;BME280;63097;51.872;4.460;2023-06-26T04:26:00;101561.75;;;19.49;74.46
74594;BME280;63097;51.872;4.460;2023-06-26T04:28:26;101559.69;;;19.59;73.69
74594;BME280;63097;51.872;4.460;2023-06-26T04:30:51;101570.31;;;19.67;73.51
74594;BME280;63097;51.872;4.460;2023-06-26T04:33:16;101576.97;;;19.81;72.25
74594;BME280;63097;51.872;4.460;2023-06-26T04:35:42;101546.88;;;19.72;72.09
74594;BME280;63097;51.872;4.460;2023-06-26T04:38:07;101556.63;;;19.84;71.46
74594;BME280;63097;51.872;4.460;2023-06-26T04:40:32;101575.78;;;19.87;70.84
74594;BME280;63097;51.872;4.460;2023-06-26T04:42:58;101582.84;;;19.90;70.97
74594;BME280;63097;51.872;4.460;2023-06-26T04:45:23;101577.44;;;19.93;70.94
74594;BME280;63097;51.872;4.460;2023-06-26T04:47:48;101566.22;;;19.83;70.87
74594;BME280;63097;51.872;4.460;2023-06-26T04:50:14;101589.28;;;19.95;71.78
74594;BME280;63097;51.872;4.460;2023-06-26T04:52:39;101587.94;;;19.88;71.07
74594;BME280;63097;51.872;4.460;2023-06-26T04:55:04;101600.63;;;19.90;71.55
74594;BME280;63097;51.872;4.460;2023-06-26T04:57:31;101599.22;;;19.88;71.41
74594;BME280;63097;51.872;4.460;2023-06-26T04:59:56;101595.38;;;19.79;72.22
74594;BME280;63097;51.872;4.460;2023-06-26T05:02:22;101612.75;;;19.91;72.40
74594;BME280;63097;51.872;4.460;2023-06-26T05:04:47;101614.94;;;19.99;72.09
74594;BME280;63097;51.872;4.460;2023-06-26T05:07:13;101604.75;;;20.03;71.59
74594;BME280;63097;51.872;4.460;2023-06-26T05:09:38;101618.44;;;20.20;71.67
74594;BME280;63097;51.872;4.460;2023-06-26T05:12:04;101606.59;;;20.18;70.85
74594;BME280;63097;51.872;4.460;2023-06-26T05:14:29;101626.06;;;20.19;71.95
74594;BME280;63097;51.872;4.460;2023-06-26T05:16:54;101616.22;;;20.12;71.47
74594;BME280;63097;51.872;4.460;2023-06-26T05:19:20;101596.91;;;19.95;70.60
74594;BME280;63097;51.872;4.460;2023-06-26T05:21:45;101623.97;;;20.01;70.32
74594;BME280;63097;51.872;4.460;2023-06-26T05:24:13;101631.22;;;20.07;70.49
74594;BME280;63097;51.872;4.460;2023-06-26T05:26:38;101621.31;;;20.10;70.17
74594;BME280;63097;51.872;4.460;2023-06-26T05:29:04;101643.22;;;20.28;67.82
74594;BME280;63097;51.872;4.460;2023-06-26T05:31:32;101650.44;;;20.39;65.53
74594;BME280;63097;51.872;4.460;2023-06-26T05:33:59;101657.63;;;20.26;63.71
74594;BME280;63097;51.872;4.460;2023-06-26T05:36:27;101660.38;;;20.02;63.89
74594;BME280;63097;51.872;4.460;2023-06-26T05:38:54;101672.75;;;19.73;64.89
74594;BME280;63097;51.872;4.460;2023-06-26T05:41:20;101673.88;;;19.77;65.01
74594;BME280;63097;51.872;4.460;2023-06-26T05:43:45;101659.63;;;19.92;64.93
74594;BME280;63097;51.872;4.460;2023-06-26T05:46:11;101682.34;;;20.11;63.94
74594;BME280;63097;51.872;4.460;2023-06-26T05:48:36;101685.19;;;20.11;63.23
74594;BME280;63097;51.872;4.460;2023-06-26T05:51:02;101694.53;;;20.06;63.96
74594;BME280;63097;51.872;4.460;2023-06-26T05:53:27;101708.75;;;19.91;64.30
74594;BME280;63097;51.872;4.460;2023-06-26T05:55:53;101693.66;;;19.72;63.76
74594;BME280;63097;51.872;4.460;2023-06-26T05:58:19;101690.59;;;19.68;63.79
74594;BME280;63097;51.872;4.460;2023-06-26T06:00:45;101687.56;;;19.55;65.08
74594;BME280;63097;51.872;4.460;2023-06-26T06:03:10;101668.81;;;19.69;63.47
74594;BME280;63097;51.872;4.460;2023-06-26T06:05:35;101671.66;;;19.69;64.05
74594;BME280;63097;51.872;4.460;2023-06-26T06:08:01;101690.19;;;19.80;62.97
74594;BME280;63097;51.872;4.460;2023-06-26T06:10:26;101696.78;;;20.04;61.95
74594;BME280;63097;51.872;4.460;2023-06-26T06:12:51;101700.22;;;20.35;61.40
74594;BME280;63097;51.872;4.460;2023-06-26T06:15:17;101717.69;;;20.42;60.74
74594;BME280;63097;51.872;4.460;2023-06-26T06:17:42;101700.28;;;19.91;62.27
74594;BME280;63097;51.872;4.460;2023-06-26T06:20:08;101726.84;;;19.90;62.27
74594;BME280;63097;51.872;4.460;2023-06-26T06:22:33;101734.16;;;19.96;62.13
74594;BME280;63097;51.872;4.460;2023-06-26T06:24:59;101725.13;;;19.94;62.59
74594;BME280;63097;51.872;4.460;2023-06-26T06:27:25;101728.53;;;19.91;62.35
74594;BME280;63097;51.872;4.460;2023-06-26T06:29:50;101727.22;;;19.78;62.96
74594;BME280;63097;51.872;4.460;2023-06-26T06:32:15;101723.56;;;19.73;63.06
74594;BME280;63097;51.872;4.460;2023-06-26T06:34:41;101718.44;;;19.85;63.27
74594;BME280;63097;51.872;4.460;2023-06-26T06:37:06;101745.78;;;20.28;62.89
74594;BME280;63097;51.872;4.460;2023-06-26T06:39:31;101753.81;;;20.73;61.68
74594;BME280;63097;51.872;4.460;2023-06-26T06:41:57;101751.00;;;20.45;60.06
74594;BME280;63097;51.872;4.460;2023-06-26T06:44:22;101729.63;;;19.95;60.79
74594;BME280;63097;51.872;4.460;2023-06-26T06:46:47;101749.34;;;20.05;61.54
74594;BME280;63097;51.872;4.460;2023-06-26T06:49:13;101762.94;;;19.98;60.37
74594;BME280;63097;51.872;4.460;2023-06-26T06:51:38;101747.28;;;20.16;60.03
74594;BME280;63097;51.872;4.460;2023-06-26T06:54:03;101773.72;;;20.63;58.10
74594;BME280;63097;51.872;4.460;2023-06-26T06:56:29;101773.88;;;20.77;58.41
74594;BME280;63097;51.872;4.460;2023-06-26T06:58:54;101781.72;;;20.85;58.83
74594;BME280;63097;51.872;4.460;2023-06-26T07:01:19;101787.97;;;20.82;58.61
74594;BME280;63097;51.872;4.460;2023-06-26T07:03:44;101781.34;;;20.34;59.12
74594;BME280;63097;51.872;4.460;2023-06-26T07:06:10;101771.66;;;20.45;59.19
74594;BME280;63097;51.872;4.460;2023-06-26T07:08:35;101767.22;;;20.34;60.52
74594;BME280;63097;51.872;4.460;2023-06-26T07:11:00;101779.03;;;20.41;60.44
74594;BME280;63097;51.872;4.460;2023-06-26T07:13:26;101779.88;;;20.70;59.70
74594;BME280;63097;51.872;4.460;2023-06-26T07:15:51;101785.63;;;20.89;59.63
74594;BME280;63097;51.872;4.460;2023-06-26T07:18:17;101777.22;;;20.84;59.42
74594;BME280;63097;51.872;4.460;2023-06-26T07:20:42;101794.59;;;20.96;59.11
74594;BME280;63097;51.872;4.460;2023-06-26T07:23:08;101792.59;;;21.25;58.52
74594;BME280;63097;51.872;4.460;2023-06-26T07:25:33;101808.16;;;21.28;58.50
74594;BME280;63097;51.872;4.460;2023-06-26T07:27:59;101793.56;;;21.16;59.63
74594;BME280;63097;51.872;4.460;2023-06-26T07:30:24;101820.50;;;21.37;58.88
74594;BME280;63097;51.872;4.460;2023-06-26T07:32:49;101819.75;;;21.26;58.99
74594;BME280;63097;51.872;4.460;2023-06-26T07:35:15;101818.50;;;21.37;58.33
74594;BME280;63097;51.872;4.460;2023-06-26T07:37:40;101812.19;;;21.22;57.34
74594;BME280;63097;51.872;4.460;2023-06-26T07:40:06;101824.34;;;21.46;57.80
74594;BME280;63097;51.872;4.460;2023-06-26T07:42:32;101820.19;;;21.38;57.40
74594;BME280;63097;51.872;4.460;2023-06-26T07:44:57;101828.25;;;21.73;56.90
74594;BME280;63097;51.872;4.460;2023-06-26T07:47:22;101843.28;;;21.69;57.13
74594;BME280;63097;51.872;4.460;2023-06-26T07:49:47;101807.91;;;21.48;57.71
74594;BME280;63097;51.872;4.460;2023-06-26T07:52:13;101819.38;;;21.80;56.87
74594;BME280;63097;51.872;4.460;2023-06-26T07:54:38;101831.25;;;21.82;56.52
74594;BME280;63097;51.872;4.460;2023-06-26T07:57:04;101844.03;;;21.79;57.16
74594;BME280;63097;51.872;4.460;2023-06-26T07:59:30;101840.38;;;21.74;57.22
74594;BME280;63097;51.872;4.460;2023-06-26T08:01:57;101848.72;;;21.65;57.32
74594;BME280;63097;51.872;4.460;2023-06-26T08:04:24;101843.69;;;21.86;57.00
74594;BME280;63097;51.872;4.460;2023-06-26T08:06:52;101848.72;;;21.89;56.78
74594;BME280;63097;51.872;4.460;2023-06-26T08:09:19;101855.72;;;21.73;56.29
74594;BME280;63097;51.872;4.460;2023-06-26T08:11:45;101851.63;;;21.84;56.08
74594;BME280;63097;51.872;4.460;2023-06-26T08:14:11;101843.84;;;21.94;55.42
74594;BME280;63097;51.872;4.460;2023-06-26T08:16:36;101854.72;;;22.06;55.78
74594;BME280;63097;51.872;4.460;2023-06-26T08:19:01;101848.75;;;22.26;55.16
74594;BME280;63097;51.872;4.460;2023-06-26T08:21:27;101874.91;;;21.81;55.69
74594;BME280;63097;51.872;4.460;2023-06-26T08:23:52;101846.47;;;22.10;55.47
74594;BME280;63097;51.872;4.460;2023-06-26T08:26:17;101870.88;;;22.80;53.44
74594;BME280;63097;51.872;4.460;2023-06-26T08:28:43;101874.59;;;22.62;53.95
74594;BME280;63097;51.872;4.460;2023-06-26T08:31:08;101876.84;;;22.78;53.67
74594;BME280;63097;51.872;4.460;2023-06-26T08:33:33;101875.16;;;22.22;54.37
74594;BME280;63097;51.872;4.460;2023-06-26T08:35:58;101869.34;;;22.13;54.52
74594;BME280;63097;51.872;4.460;2023-06-26T08:38:24;101855.56;;;22.62;52.88
74594;BME280;63097;51.872;4.460;2023-06-26T08:40:49;101885.22;;;22.88;52.64
74594;BME280;63097;51.872;4.460;2023-06-26T08:43:14;101891.97;;;22.74;52.58
74594;BME280;63097;51.872;4.460;2023-06-26T08:45:40;101891.81;;;22.65;52.50
74594;BME280;63097;51.872;4.460;2023-06-26T08:48:09;101858.84;;;21.95;54.24
74594;BME280;63097;51.872;4.460;2023-06-26T08:50:35;101888.91;;;22.33;53.65
74594;BME280;63097;51.872;4.460;2023-06-26T08:55:36;101875.03;;;23.33;52.43
74594;BME280;63097;51.872;4.460;2023-06-26T08:58:04;101873.72;;;23.12;50.99
74594;BME280;63097;51.872;4.460;2023-06-26T09:00:29;101878.03;;;22.77;51.91
74594;BME280;63097;51.872;4.460;2023-06-26T09:02:56;101883.91;;;22.25;53.19
74594;BME280;63097;51.872;4.460;2023-06-26T09:05:21;101894.66;;;22.28;53.56
74594;BME280;63097;51.872;4.460;2023-06-26T09:07:46;101886.56;;;21.98;54.96
74594;BME280;63097;51.872;4.460;2023-06-26T09:10:12;101904.19;;;22.74;52.37
74594;BME280;63097;51.872;4.460;2023-06-26T09:12:37;101904.78;;;22.71;52.75
74594;BME280;63097;51.872;4.460;2023-06-26T09:15:04;101891.03;;;22.04;53.23
74594;BME280;63097;51.872;4.460;2023-06-26T09:17:32;101925.69;;;22.38;53.44
74594;BME280;63097;51.872;4.460;2023-06-26T09:19:58;101883.78;;;22.54;52.84
74594;BME280;63097;51.872;4.460;2023-06-26T09:22:23;101925.28;;;23.01;52.50
74594;BME280;63097;51.872;4.460;2023-06-26T09:24:49;101925.16;;;22.55;52.67
74594;BME280;63097;51.872;4.460;2023-06-26T09:27:16;101930.94;;;22.87;51.70
74594;BME280;63097;51.872;4.460;2023-06-26T09:29:41;101937.38;;;22.74;52.48
74594;BME280;63097;51.872;4.460;2023-06-26T09:32:09;101942.03;;;23.34;52.03
74594;BME280;63097;51.872;4.460;2023-06-26T09:34:35;101940.84;;;23.94;49.24
74594;BME280;63097;51.872;4.460;2023-06-26T09:37:00;101949.38;;;23.81;49.59
74594;BME280;63097;51.872;4.460;2023-06-26T09:39:25;101942.59;;;23.50;50.66
74594;BME280;63097;51.872;4.460;2023-06-26T09:41:51;101950.84;;;23.78;50.90
74594;BME280;63097;51.872;4.460;2023-06-26T09:44:16;101947.06;;;24.10;49.73
74594;BME280;63097;51.872;4.460;2023-06-26T09:46:45;101945.63;;;24.13;49.17
74594;BME280;63097;51.872;4.460;2023-06-26T09:49:11;101957.09;;;23.48;50.48
74594;BME280;63097;51.872;4.460;2023-06-26T09:51:38;101953.31;;;23.39;50.35
74594;BME280;63097;51.872;4.460;2023-06-26T09:54:05;101956.75;;;23.82;50.69
74594;BME280;63097;51.872;4.460;2023-06-26T09:56:31;101961.38;;;24.32;48.59
74594;BME280;63097;51.872;4.460;2023-06-26T09:58:59;101970.03;;;24.41;48.12
74594;BME280;63097;51.872;4.460;2023-06-26T10:01:25;101973.06;;;24.44;48.87
74594;BME280;63097;51.872;4.460;2023-06-26T10:03:51;101967.81;;;23.97;48.28
74594;BME280;63097;51.872;4.460;2023-06-26T10:06:19;101935.91;;;23.86;49.27
74594;BME280;63097;51.872;4.460;2023-06-26T10:08:45;101974.72;;;24.72;47.20
74594;BME280;63097;51.872;4.460;2023-06-26T10:11:16;101983.16;;;24.77;45.50
74594;BME280;63097;51.872;4.460;2023-06-26T10:13:43;101994.25;;;24.25;47.77
74594;BME280;63097;51.872;4.460;2023-06-26T10:16:10;101986.78;;;24.02;48.66
74594;BME280;63097;51.872;4.460;2023-06-26T10:18:38;101984.16;;;24.05;48.45
74594;BME280;63097;51.872;4.460;2023-06-26T10:21:05;101967.31;;;24.22;47.81
74594;BME280;63097;51.872;4.460;2023-06-26T10:23:31;101994.00;;;23.16;49.69
74594;BME280;63097;51.872;4.460;2023-06-26T10:25:58;101997.16;;;23.15;50.49
74594;BME280;63097;51.872;4.460;2023-06-26T10:28:27;101966.81;;;24.56;47.86
74594;BME280;63097;51.872;4.460;2023-06-26T10:30:54;101989.09;;;25.47;45.39
74594;BME280;63097;51.872;4.460;2023-06-26T10:33:20;101991.72;;;26.36;41.08
74594;BME280;63097;51.872;4.460;2023-06-26T10:35:46;101998.13;;;26.41;40.38
74594;BME280;63097;51.872;4.460;2023-06-26T10:38:11;101999.16;;;26.45;40.44
74594;BME280;63097;51.872;4.460;2023-06-26T10:40:44;101993.94;;;25.69;40.86
74594;BME280;63097;51.872;4.460;2023-06-26T10:43:12;102006.06;;;25.83;40.04
74594;BME280;63097;51.872;4.460;2023-06-26T10:45:46;102008.25;;;26.08;39.81
74594;BME280;63097;51.872;4.460;2023-06-26T10:48:15;101997.69;;;26.17;39.09
74594;BME280;63097;51.872;4.460;2023-06-26T10:50:41;101984.00;;;26.28;38.56
74594;BME280;63097;51.872;4.460;2023-06-26T10:55:49;101999.88;;;25.37;42.23
74594;BME280;63097;51.872;4.460;2023-06-26T11:01:23;102018.78;;;25.77;40.23
74594;BME280;63097;51.872;4.460;2023-06-26T11:06:24;102030.00;;;26.35;38.86
74594;BME280;63097;51.872;4.460;2023-06-26T11:08:53;102024.25;;;26.74;38.68
74594;BME280;63097;51.872;4.460;2023-06-26T11:11:19;102016.50;;;26.18;39.14
74594;BME280;63097;51.872;4.460;2023-06-26T11:13:45;102028.34;;;26.90;38.16
74594;BME280;63097;51.872;4.460;2023-06-26T11:16:12;102039.78;;;27.50;37.09
74594;BME280;63097;51.872;4.460;2023-06-26T11:18:38;102036.38;;;27.05;36.66
74594;BME280;63097;51.872;4.460;2023-06-26T11:21:11;102050.56;;;26.62;36.92
74594;BME280;63097;51.872;4.460;2023-06-26T11:23:37;102065.31;;;27.21;37.20
74594;BME280;63097;51.872;4.460;2023-06-26T11:26:19;102041.94;;;26.93;36.32
74594;BME280;63097;51.872;4.460;2023-06-26T11:28:55;102061.44;;;27.85;35.41
74594;BME280;63097;51.872;4.460;2023-06-26T11:31:30;102051.31;;;27.88;35.36
74594;BME280;63097;51.872;4.460;2023-06-26T11:33:56;102058.22;;;27.95;35.78
74594;BME280;63097;51.872;4.460;2023-06-26T11:36:23;102067.47;;;28.01;34.74
74594;BME280;63097;51.872;4.460;2023-06-26T11:38:58;102063.47;;;27.59;35.34
74594;BME280;63097;51.872;4.460;2023-06-26T11:41:26;102088.47;;;28.13;34.07
74594;BME280;63097;51.872;4.460;2023-06-26T11:43:52;102079.91;;;27.88;33.56
74594;BME280;63097;51.872;4.460;2023-06-26T11:46:17;102081.19;;;26.70;36.04
74594;BME280;63097;51.872;4.460;2023-06-26T11:48:43;102071.88;;;26.17;37.56
74594;BME280;63097;51.872;4.460;2023-06-26T11:51:09;102083.56;;;26.46;37.86
74594;BME280;63097;51.872;4.460;2023-06-26T11:53:39;102095.19;;;26.19;38.65
74594;BME280;63097;51.872;4.460;2023-06-26T11:56:12;102086.41;;;26.38;37.83
74594;BME280;63097;51.872;4.460;2023-06-26T11:59:08;102093.72;;;27.26;37.77
74594;BME280;63097;51.872;4.460;2023-06-26T12:01:42;102102.59;;;26.59;37.30
74594;BME280;63097;51.872;4.460;2023-06-26T12:04:08;102084.28;;;26.13;38.39
74594;BME280;63097;51.872;4.460;2023-06-26T12:06:34;102096.75;;;27.38;36.52
74594;BME280;63097;51.872;4.460;2023-06-26T12:09:02;102106.34;;;27.76;36.18
74594;BME280;63097;51.872;4.460;2023-06-26T12:11:27;102095.06;;;27.71;36.08
74594;BME280;63097;51.872;4.460;2023-06-26T12:13:54;102113.63;;;28.45;34.55
74594;BME280;63097;51.872;4.460;2023-06-26T12:16:19;102105.69;;;28.42;35.73
74594;BME280;63097;51.872;4.460;2023-06-26T12:18:45;102107.97;;;27.00;37.03
74594;BME280;63097;51.872;4.460;2023-06-26T12:21:48;102107.94;;;26.52;38.83
74594;BME280;63097;51.872;4.460;2023-06-26T12:24:15;102109.88;;;27.82;34.49
74594;BME280;63097;51.872;4.460;2023-06-26T12:26:42;102115.78;;;27.59;35.64
74594;BME280;63097;51.872;4.460;2023-06-26T12:29:13;102108.97;;;26.96;37.84
74594;BME280;63097;51.872;4.460;2023-06-26T12:31:40;102116.09;;;25.84;36.48
74594;BME280;63097;51.872;4.460;2023-06-26T12:34:11;102102.88;;;25.66;38.57
74594;BME280;63097;51.872;4.460;2023-06-26T12:36:40;102113.03;;;26.64;36.46
74594;BME280;63097;51.872;4.460;2023-06-26T12:39:08;102102.13;;;27.14;35.61
74594;BME280;63097;51.872;4.460;2023-06-26T12:41:34;102117.38;;;27.18;35.64
74594;BME280;63097;51.872;4.460;2023-06-26T12:43:59;102110.44;;;26.45;37.85
74594;BME280;63097;51.872;4.460;2023-06-26T12:46:34;102102.56;;;26.42;36.27
74594;BME280;63097;51.872;4.460;2023-06-26T12:48:59;102114.09;;;26.07;36.39
74594;BME280;63097;51.872;4.460;2023-06-26T12:51:25;102119.88;;;26.54;36.72
74594;BME280;63097;51.872;4.460;2023-06-26T12:53:50;102121.00;;;27.32;34.86
74594;BME280;63097;51.872;4.460;2023-06-26T12:56:15;102121.66;;;27.89;33.56
74594;BME280;63097;51.872;4.460;2023-06-26T12:58:40;102124.34;;;27.42;35.44
74594;BME280;63097;51.872;4.460;2023-06-26T13:01:07;102103.75;;;28.72;33.17